Cincinnati, OH

12:20 AM EST on February 14, 2016 (GMT -0500)
Mt Adams | | Change Station
CLOSE
Current Station
Personal Weather Station
Location: Cincinnati, OH
Elevation: 797 ft
Nearby Weather Stations
Active Advisory: Winter Weather Advisory

Elev 797 ft 39.11 °N, 84.50 °W | Updated 16 seconds ago

Partly Cloudy
Partly Cloudy
14.4 °F
Feels Like 14 °F
N
2.2
Wind Variable Wind from East
Gusts 4.7 mph

Today
High -- | Low -- °F
--% Chance of Precip.
Yesterday
High -- | Low -- °F
Precip. -- in
Pressure 30.55 in
Visibility 10.0 miles
Clouds Clear
Windchill 14 °F
Dew Point 9 °F
Humidity 78%
Rainfall 0.00 in
Snow Depth Not available.
7:31 AM 6:13 PM
Waxing Crescent, 38% visible
METAR KLUK 140453Z AUTO 02003KT 10SM CLR M12/M14 A3052 RMK AO2 SLP344 T11171144 410611128
Pressure 30.55 in
Visibility 10.0 miles
Clouds Clear
Windchill 14 °F
Dew Point 9 °F
Humidity 78%
Rainfall 0.00 in
Snow Depth Not available.
7:31 AM 6:13 PM
Waxing Crescent, 38% visible
METAR KLUK 140453Z AUTO 02003KT 10SM CLR M12/M14 A3052 RMK AO2 SLP344 T11171144 410611128

10-Day Weather Forecast

Almanac

Astronomy

Feb. 14, 2016 Rise Set
Actual Time
Civil Twilight
Nautical Twilight
Astronomical Twilight
Moon
Length of Visible Light
Length of Day
Tomorrow will be .
, % of the Moon is Illuminated

Today's Extremes

State Highs State Lows

Community

WunderPhotos

Upload Photos

1,892,748 photos uploaded!

WunderBlog® & News

Nearby

Air Quality

  Air Quality AQ Index Pollutant
Not available.

Snow Depth

Station Depth Elevation

Earthquake Activity

City Distance Mag. Time & Date
Minimum magnitude displayed is 2.5.

Coastal Water Temperatures

Place Temperature

Stations

Nearby Weather Stations

Station Location Temp. Windchill Dew Point Humidity Wind Precip. Elev Updated Type
                   

Watches & Warnings

Winter Weather Advisory
Issued: 9:29 PM EST Feb. 13, 2016 – National Weather Service

... Winter Weather Advisory remains in effect from noon Sunday to
10 am EST Monday...

* timing... snow will begin during the early afternoon on
Sunday... continuing through late evening. Light snow may
continue through Monday morning.

* Accumulations... snow accumulations of 2 to 3 inches are
expected by late Sunday evening.

* Impacts... travel difficulties are expected due to reduced
visibilities and snow accumulations.

* Temperatures... temperatures are expected to be in the mid 20s
on Sunday. Temperatures will rise overnight... reaching the
lower 30s by Monday morning.

Precautionary/preparedness actions...

Remember... a Winter Weather Advisory for snow means that periods
of snow will cause primarily travel difficulties. Be prepared for
snow covered roads and limited visibilities... and use caution
while driving. Stay tuned to NOAA Weather Radio or your favorite
source of information for the latest updates. Additional details
can also be found at www.Weather.Gov/iln as well as on our
facebook and twitter pages.